Time;durP1;ratioP1;P1;durP2;ratioP2;P2;SDS_P1;SDS_P2;PMS_P1;PMS_P2;Temp;Humidity;BMP_temperature;BMP_pressure;BME280_temperature;BME280_humidity;BME280_pressure;Samples;Min_cycle;Max_cycle;Signal;HPM_P1;HPM_P2
2023/10/25 00:01:40;;;;;;;1.38;0.50;;;11.50;99.90;;;;;;4132668;28;20169;-92
2023/10/25 00:03:41;;;;;;;2.78;0.70;;;11.70;99.90;;;;;;4132725;28;20174;-91
2023/10/25 00:05:42;;;;;;;2.95;0.68;;;11.80;99.90;;;;;;4149025;28;20541;-90
2023/10/25 00:07:43;;;;;;;0.50;0.40;;;11.80;99.90;;;;;;4132627;28;20224;-91
2023/10/25 00:09:44;;;;;;;0.60;0.40;;;11.80;99.90;;;;;;4132635;28;20539;-91
2023/10/25 00:11:45;;;;;;;8.38;1.13;;;11.70;99.90;;;;;;4148746;28;20188;-93
2023/10/25 00:13:46;;;;;;;1.33;0.60;;;11.70;99.90;;;;;;4148686;28;20648;-91
2023/10/25 00:15:46;;;;;;;4.75;0.73;;;11.80;99.90;;;;;;4148371;28;20287;-92
2023/10/25 00:17:48;;;;;;;11.15;1.25;;;11.80;99.90;;;;;;4148574;28;20573;-91
2023/10/25 00:19:50;;;;;;;2.05;0.68;;;11.80;99.90;;;;;;4132518;28;20184;-91
2023/10/25 00:21:51;;;;;;;0.95;0.60;;;11.70;99.90;;;;;;4132462;28;20165;-91
2023/10/25 00:23:52;;;;;;;9.32;0.75;;;11.80;99.90;;;;;;4148591;28;20179;-93
2023/10/25 00:25:53;;;;;;;0.90;0.40;;;11.60;99.90;;;;;;4132472;28;20174;-92
2023/10/25 00:27:53;;;;;;;0.52;0.30;;;11.60;99.90;;;;;;4148567;28;20203;-92
2023/10/25 00:29:54;;;;;;;1.48;0.50;;;11.60;99.90;;;;;;4148117;28;20856;-91
2023/10/25 00:31:55;;;;;;;0.73;0.40;;;11.60;99.90;;;;;;4148376;28;20168;-91
2023/10/25 00:33:57;;;;;;;6.15;1.42;;;11.70;99.90;;;;;;4148524;28;20180;-91
2023/10/25 00:35:58;;;;;;;0.60;0.47;;;11.80;99.90;;;;;;4148660;28;20234;-91
2023/10/25 00:37:58;;;;;;;1.48;0.55;;;11.80;99.90;;;;;;4148506;28;20188;-92
2023/10/25 00:39:59;;;;;;;0.95;0.40;;;11.70;99.90;;;;;;4148472;28;20224;-91
2023/10/25 00:42:00;;;;;;;0.68;0.30;;;11.70;99.90;;;;;;4148336;28;20177;-92
2023/10/25 00:44:01;;;;;;;1.45;0.80;;;11.60;99.90;;;;;;4148523;28;20169;-91
2023/10/25 00:46:11;;;;;;;2.50;0.80;;;11.60;99.90;;;;;;4148510;28;20177;-92
2023/10/25 00:48:12;;;;;;;1.23;0.77;;;11.70;99.90;;;;;;4132436;28;20204;-91
2023/10/25 00:50:17;;;;;;;2.85;0.93;;;11.70;99.90;;;;;;4148186;28;20216;-92
2023/10/25 00:52:18;;;;;;;0.90;0.57;;;11.60;99.90;;;;;;4148291;28;20173;-91
2023/10/25 00:54:21;;;;;;;0.65;0.30;;;11.70;99.90;;;;;;4148156;28;20173;-92
2023/10/25 00:56:26;;;;;;;3.63;0.75;;;11.60;99.90;;;;;;4148443;28;20176;-92
2023/10/25 00:58:28;;;;;;;1.38;0.55;;;11.60;99.90;;;;;;4132063;28;20554;-91
2023/10/25 01:00:29;;;;;;;1.35;0.57;;;11.70;99.90;;;;;;4132010;28;20594;-90
2023/10/25 01:02:30;;;;;;;1.75;0.43;;;11.70;99.90;;;;;;4131951;28;20219;-89
2023/10/25 01:04:30;;;;;;;2.28;0.30;;;11.60;99.90;;;;;;4148129;28;20177;-91
2023/10/25 01:06:31;;;;;;;0.40;0.35;;;11.70;99.90;;;;;;4132110;28;20260;-92
2023/10/25 01:08:32;;;;;;;0.52;0.43;;;11.70;99.90;;;;;;4148285;28;20323;-91
2023/10/25 01:10:34;;;;;;;1.27;0.60;;;11.80;99.90;;;;;;4148110;28;20226;-92
2023/10/25 01:12:36;;;;;;;6.97;1.15;;;11.70;99.90;;;;;;4148121;28;20672;-90
2023/10/25 01:16:57;;;;;;;1.02;0.40;;;11.80;99.90;;;;;;4134273;28;20718;-92
2023/10/25 01:18:57;;;;;;;2.63;1.08;;;11.70;99.90;;;;;;4148068;28;20184;-91
2023/10/25 01:20:59;;;;;;;2.15;1.25;;;11.70;99.90;;;;;;4132027;28;20178;-93
2023/10/25 01:23:00;;;;;;;2.35;0.90;;;11.90;99.90;;;;;;4132024;28;20204;-91
2023/10/25 01:25:00;;;;;;;5.10;1.63;;;12.00;99.90;;;;;;4148221;28;20177;-91
2023/10/25 01:27:02;;;;;;;3.00;0.50;;;12.00;99.90;;;;;;4148240;28;20192;-92
2023/10/25 01:29:04;;;;;;;1.02;0.43;;;11.90;99.90;;;;;;4131836;28;20180;-92
2023/10/25 01:31:05;;;;;;;2.25;0.75;;;12.00;99.90;;;;;;4148050;28;20692;-92
2023/10/25 01:33:07;;;;;;;5.30;0.93;;;11.90;99.90;;;;;;4131675;28;20170;-91
2023/10/25 01:35:08;;;;;;;1.42;0.98;;;11.90;99.90;;;;;;4148155;28;20604;-91
2023/10/25 01:37:09;;;;;;;6.60;0.88;;;11.90;99.90;;;;;;4131938;28;20252;-91
2023/10/25 01:39:10;;;;;;;3.45;0.68;;;12.00;99.90;;;;;;4148124;28;20272;-92
2023/10/25 01:41:15;;;;;;;1.17;0.50;;;12.00;99.90;;;;;;4131659;28;20178;-91
2023/10/25 01:43:16;;;;;;;0.60;0.38;;;12.00;99.90;;;;;;4133897;28;20261;-92
2023/10/25 01:45:18;;;;;;;3.95;0.75;;;12.00;99.90;;;;;;4134995;28;20256;-92
2023/10/25 01:47:19;;;;;;;0.93;0.35;;;12.00;99.90;;;;;;4151129;28;20259;-91
2023/10/25 01:49:20;;;;;;;0.45;0.28;;;12.00;99.90;;;;;;4151079;28;20173;-91
2023/10/25 01:51:21;;;;;;;4.60;1.42;;;12.10;99.90;;;;;;4151182;28;20231;-90
2023/10/25 01:53:22;;;;;;;2.42;0.60;;;12.10;99.90;;;;;;4134636;28;20180;-93
2023/10/25 01:55:23;;;;;;;3.50;0.30;;;12.00;99.90;;;;;;4134452;28;20622;-90
2023/10/25 01:57:23;;;;;;;3.38;0.55;;;12.00;99.90;;;;;;4150816;28;20200;-92
2023/10/25 01:59:24;;;;;;;2.05;0.40;;;11.90;99.90;;;;;;4150831;28;20189;-89
2023/10/25 02:01:25;;;;;;;7.25;0.70;;;12.00;99.90;;;;;;4134565;28;20194;-91
2023/10/25 02:03:26;;;;;;;1.77;0.80;;;11.90;99.90;;;;;;4134689;28;20177;-90
2023/10/25 02:05:27;;;;;;;2.85;0.47;;;11.70;99.90;;;;;;4150631;28;20179;-91
2023/10/25 02:07:28;;;;;;;2.63;0.68;;;11.70;99.90;;;;;;4134644;28;20352;-91
2023/10/25 02:09:29;;;;;;;2.35;0.90;;;11.70;99.90;;;;;;4134566;28;20177;-93
2023/10/25 02:11:30;;;;;;;2.28;0.63;;;11.70;99.90;;;;;;4150804;28;20169;-92
2023/10/25 02:13:31;;;;;;;4.03;0.77;;;11.80;99.90;;;;;;4150353;28;20271;-92
2023/10/25 02:15:32;;;;;;;1.95;0.68;;;11.70;99.90;;;;;;4134475;28;20994;-91
2023/10/25 02:17:33;;;;;;;3.25;0.77;;;11.70;99.90;;;;;;4150993;28;20704;-90
2023/10/25 02:19:35;;;;;;;3.10;0.50;;;11.70;99.90;;;;;;4150523;28;20181;-91
2023/10/25 02:21:35;;;;;;;4.88;0.47;;;11.80;99.90;;;;;;4134556;28;20169;-91
2023/10/25 02:23:38;;;;;;;3.03;0.35;;;11.80;99.90;;;;;;4150611;28;20177;-92
2023/10/25 02:25:39;;;;;;;2.00;0.82;;;11.90;99.90;;;;;;4134188;28;20173;-92
2023/10/25 02:27:40;;;;;;;1.20;0.45;;;12.00;99.90;;;;;;4150257;28;20225;-91
2023/10/25 02:29:41;;;;;;;1.45;0.40;;;12.00;99.90;;;;;;4133994;28;20216;-92
2023/10/25 02:31:41;;;;;;;1.33;0.30;;;12.00;99.90;;;;;;4150367;28;20180;-92
2023/10/25 02:33:42;;;;;;;2.35;0.45;;;12.10;99.90;;;;;;4150480;28;20215;-91
2023/10/25 02:35:43;;;;;;;2.55;0.85;;;12.10;99.90;;;;;;4134273;28;20190;-92
2023/10/25 02:37:44;;;;;;;0.73;0.40;;;12.10;99.90;;;;;;4166695;28;20212;-90
2023/10/25 02:39:45;;;;;;;0.43;0.22;;;12.10;99.90;;;;;;4150513;28;20170;-93
2023/10/25 02:41:46;;;;;;;0.82;0.45;;;12.20;99.90;;;;;;4134165;28;20173;-91
2023/10/25 02:43:47;;;;;;;0.55;0.40;;;12.20;99.90;;;;;;4150175;28;20534;-92
2023/10/25 02:45:47;;;;;;;1.85;0.25;;;12.10;99.90;;;;;;4150372;28;20184;-90
2023/10/25 02:47:48;;;;;;;0.20;0.20;;;12.00;99.90;;;;;;4150212;28;20680;-92
2023/10/25 02:49:49;;;;;;;0.63;0.40;;;12.20;99.90;;;;;;4133789;28;20277;-91
2023/10/25 02:51:50;;;;;;;0.80;0.43;;;12.10;99.90;;;;;;4134075;28;20177;-91
2023/10/25 02:53:52;;;;;;;1.65;0.30;;;12.10;99.90;;;;;;4149816;28;20576;-92
2023/10/25 02:56:04;;;;;;;2.83;0.55;;;12.10;99.90;;;;;;4150154;28;20577;-91
2023/10/25 02:58:05;;;;;;;1.90;0.30;;;12.00;99.90;;;;;;4150046;28;20246;-92
2023/10/25 03:00:06;;;;;;;1.42;0.30;;;12.00;99.90;;;;;;4133657;28;20173;-91
2023/10/25 03:02:07;;;;;;;3.75;0.85;;;11.90;99.90;;;;;;4149834;28;20203;-92
2023/10/25 03:04:09;;;;;;;2.42;0.52;;;12.00;99.90;;;;;;4133675;28;20178;-92
2023/10/25 03:06:09;;;;;;;1.73;0.63;;;11.90;99.90;;;;;;4149799;28;20171;-92
2023/10/25 03:08:10;;;;;;;2.88;0.38;;;12.00;99.90;;;;;;4149832;28;20669;-93
2023/10/25 03:10:11;;;;;;;1.27;0.40;;;12.00;99.90;;;;;;4149851;28;20295;-90
2023/10/25 03:12:12;;;;;;;0.57;0.30;;;11.90;99.90;;;;;;4149707;28;20177;-91
2023/10/25 03:14:13;;;;;;;2.20;0.22;;;11.90;99.90;;;;;;4149933;28;20234;-91
2023/10/25 03:16:14;;;;;;;2.28;0.90;;;11.90;99.90;;;;;;4133476;28;20184;-92
2023/10/25 03:18:15;;;;;;;0.40;0.40;;;11.80;99.90;;;;;;4133408;28;20193;-92
2023/10/25 03:20:16;;;;;;;2.30;0.63;;;11.70;99.90;;;;;;4149722;28;20188;-92
2023/10/25 03:22:18;;;;;;;0.32;0.30;;;11.70;99.90;;;;;;4149672;28;20525;-92
2023/10/25 03:24:21;;;;;;;6.30;0.93;;;11.80;99.90;;;;;;4133443;28;20733;-91
2023/10/25 03:26:21;;;;;;;0.43;0.25;;;11.80;99.90;;;;;;4133528;28;20166;-92
2023/10/25 03:28:22;;;;;;;1.17;0.50;;;11.90;99.90;;;;;;4149316;28;20688;-91
2023/10/25 03:30:23;;;;;;;18.73;0.57;;;11.90;99.90;;;;;;4133078;28;20197;-91
2023/10/25 03:32:24;;;;;;;1.73;0.68;;;11.90;99.90;;;;;;4149254;28;20188;-91
2023/10/25 03:34:25;;;;;;;0.38;0.28;;;11.80;99.90;;;;;;4133152;28;20173;-91
2023/10/25 03:36:26;;;;;;;0.88;0.55;;;11.80;99.90;;;;;;4149324;28;20219;-92
2023/10/25 03:38:27;;;;;;;7.10;0.63;;;11.90;99.90;;;;;;4133359;28;20165;-90
2023/10/25 03:40:28;;;;;;;1.17;0.52;;;11.80;99.90;;;;;;4149329;28;20173;-91
2023/10/25 03:42:29;;;;;;;0.60;0.30;;;11.90;99.90;;;;;;4148985;28;20181;-91
2023/10/25 03:44:30;;;;;;;0.40;0.35;;;11.90;99.90;;;;;;4149420;28;20165;-93
2023/10/25 03:46:30;;;;;;;1.92;0.60;;;11.90;99.90;;;;;;4133133;28;20176;-92
2023/10/25 03:48:35;;;;;;;1.05;0.45;;;11.90;99.90;;;;;;4149392;28;20267;-91
2023/10/25 03:50:36;;;;;;;1.45;0.57;;;11.70;99.90;;;;;;4149180;28;20240;-91
2023/10/25 03:52:37;;;;;;;1.27;0.55;;;11.70;99.90;;;;;;4133088;28;20170;-92
2023/10/25 03:54:38;;;;;;;4.88;0.63;;;11.70;99.90;;;;;;4149335;28;20227;-91
2023/10/25 03:56:42;;;;;;;2.75;0.70;;;11.60;99.90;;;;;;4149004;28;20251;-92
2023/10/25 03:58:42;;;;;;;1.23;0.60;;;11.60;99.90;;;;;;4133041;28;20274;-90
2023/10/25 04:00:44;;;;;;;1.52;0.50;;;11.60;99.90;;;;;;4149216;28;20176;-91
2023/10/25 04:02:45;;;;;;;1.88;0.45;;;11.70;99.90;;;;;;4148868;28;20179;-91
2023/10/25 04:04:45;;;;;;;2.13;0.50;;;11.80;99.90;;;;;;4148696;28;20177;-90
2023/10/25 04:06:46;;;;;;;0.30;0.30;;;11.70;99.90;;;;;;4132579;28;20193;-92
2023/10/25 04:08:47;;;;;;;4.43;0.60;;;11.70;99.90;;;;;;4148908;28;20573;-91
2023/10/25 04:10:56;;;;;;;1.45;0.73;;;11.70;99.90;;;;;;4148668;28;20578;-90
2023/10/25 04:12:57;;;;;;;3.13;0.52;;;11.60;99.90;;;;;;4148662;28;20267;-90
2023/10/25 04:14:58;;;;;;;2.25;0.60;;;11.50;99.90;;;;;;4132645;28;20710;-90
2023/10/25 04:16:59;;;;;;;0.80;0.52;;;11.60;99.90;;;;;;4148696;28;20231;-91
2023/10/25 04:19:00;;;;;;;2.38;0.52;;;11.50;99.90;;;;;;4132802;28;20219;-92
2023/10/25 04:21:01;;;;;;;0.88;0.35;;;11.60;99.90;;;;;;4148757;28;20673;-91
2023/10/25 04:23:02;;;;;;;2.70;0.90;;;11.50;99.90;;;;;;4132476;28;20200;-92
2023/10/25 04:25:03;;;;;;;0.52;0.17;;;11.60;99.90;;;;;;4149011;28;20173;-91
2023/10/25 04:27:04;;;;;;;1.40;0.65;;;11.70;99.90;;;;;;4132344;28;20197;-91
2023/10/25 04:29:05;;;;;;;5.72;0.50;;;11.70;99.90;;;;;;4132314;28;20181;-92
2023/10/25 04:31:10;;;;;;;0.77;0.30;;;11.70;99.90;;;;;;4132111;28;20569;-92
2023/10/25 04:33:11;;;;;;;1.25;0.45;;;11.70;99.90;;;;;;4148631;28;20180;-92
2023/10/25 04:35:13;;;;;;;5.47;0.95;;;11.60;99.90;;;;;;4148488;28;20173;-92
2023/10/25 04:37:14;;;;;;;2.53;0.30;;;11.50;99.90;;;;;;4148448;28;20200;-91
2023/10/25 04:39:14;;;;;;;0.50;0.17;;;11.40;99.90;;;;;;4148767;28;20177;-91
2023/10/25 04:41:15;;;;;;;0.80;0.40;;;11.40;99.90;;;;;;4148483;28;20629;-91
2023/10/25 04:43:17;;;;;;;1.15;0.50;;;11.60;99.90;;;;;;4132159;28;20539;-92
2023/10/25 04:45:17;;;;;;;2.17;0.52;;;11.60;99.90;;;;;;4148618;28;20188;-91
2023/10/25 04:47:18;;;;;;;3.80;0.63;;;11.70;99.90;;;;;;4132297;28;20596;-91
2023/10/25 04:49:19;;;;;;;0.55;0.20;;;12.00;99.90;;;;;;4132143;28;20188;-92
2023/10/25 04:51:20;;;;;;;0.75;0.20;;;12.10;99.90;;;;;;4148417;28;20168;-90
2023/10/25 04:53:21;;;;;;;0.45;0.45;;;12.10;99.90;;;;;;4132482;28;20174;-92
2023/10/25 04:55:26;;;;;;;0.22;0.10;;;12.30;99.90;;;;;;4148525;28;20264;-90
2023/10/25 04:57:26;;;;;;;0.55;0.30;;;12.20;99.90;;;;;;4148278;28;20197;-90
2023/10/25 04:59:29;;;;;;;0.20;0.20;;;12.10;99.90;;;;;;4132387;28;20176;-92
2023/10/25 05:01:30;;;;;;;1.38;0.43;;;12.10;99.90;;;;;;4132233;28;20209;-90
2023/10/25 05:03:30;;;;;;;0.52;0.43;;;12.00;99.90;;;;;;4148328;28;20168;-91
2023/10/25 05:05:32;;;;;;;0.35;0.20;;;11.90;99.90;;;;;;4148113;28;20176;-91
2023/10/25 05:07:37;;;;;;;3.10;0.52;;;12.00;99.90;;;;;;4131959;28;20189;-90
2023/10/25 05:09:39;;;;;;;0.65;0.13;;;11.90;99.90;;;;;;4148129;28;20255;-90
2023/10/25 05:11:44;;;;;;;0.88;0.22;;;11.90;99.90;;;;;;4132025;28;20177;-91
2023/10/25 05:13:45;;;;;;;0.65;0.22;;;11.90;99.90;;;;;;4148000;28;20657;-90
2023/10/25 05:15:46;;;;;;;0.43;0.20;;;11.90;99.90;;;;;;4131992;28;20169;-90
2023/10/25 05:17:47;;;;;;;6.13;0.52;;;11.80;99.90;;;;;;4149389;28;20192;-90
2023/10/25 05:19:48;;;;;;;0.55;0.25;;;11.80;99.90;;;;;;4151296;28;20168;-90
2023/10/25 05:21:50;;;;;;;0.65;0.40;;;11.80;99.90;;;;;;4151453;28;20177;-91
2023/10/25 05:23:52;;;;;;;0.10;0.10;;;11.80;99.90;;;;;;4151519;28;20259;-89
2023/10/25 05:25:53;;;;;;;5.18;0.75;;;11.70;99.90;;;;;;4135404;28;20614;-88
2023/10/25 05:27:54;;;;;;;6.50;1.58;;;11.70;99.90;;;;;;4151264;28;20185;-90
2023/10/25 05:29:59;;;;;;;9.05;0.40;;;11.70;99.90;;;;;;4151211;28;20250;-91
2023/10/25 05:32:05;;;;;;;0.40;0.22;;;11.60;99.90;;;;;;4135170;28;20630;-89
2023/10/25 05:34:06;;;;;;;0.50;0.25;;;11.70;99.90;;;;;;4151285;28;20182;-89
2023/10/25 05:36:07;;;;;;;1.45;0.40;;;11.70;99.90;;;;;;4151308;28;20642;-91
2023/10/25 05:38:09;;;;;;;0.45;0.20;;;11.70;99.90;;;;;;4151304;28;20681;-90
2023/10/25 05:40:10;;;;;;;0.98;0.30;;;11.70;99.90;;;;;;4135039;28;20173;-90
2023/10/25 05:42:20;;;;;;;2.20;0.30;;;11.60;99.90;;;;;;4151201;28;20172;-89
2023/10/25 05:44:21;;;;;;;1.63;0.63;;;11.50;99.90;;;;;;4134934;28;20223;-90
2023/10/25 05:46:22;;;;;;;0.60;0.30;;;11.60;99.90;;;;;;4151311;28;20319;-91
2023/10/25 05:48:23;;;;;;;1.50;0.38;;;11.60;99.90;;;;;;4134886;28;20193;-91
2023/10/25 05:50:24;;;;;;;0.52;0.38;;;11.50;99.90;;;;;;4150856;28;20254;-90
2023/10/25 05:52:25;;;;;;;1.88;0.50;;;11.60;99.90;;;;;;4135060;28;20256;-92
2023/10/25 05:54:26;;;;;;;0.35;0.20;;;11.60;99.90;;;;;;4151172;28;20205;-90
2023/10/25 05:56:28;;;;;;;1.90;0.50;;;11.40;99.90;;;;;;4134632;28;20179;-91
2023/10/25 05:58:29;;;;;;;0.52;0.22;;;11.40;99.90;;;;;;4134761;28;20182;-91
2023/10/25 06:00:30;;;;;;;1.05;0.63;;;11.20;99.90;;;;;;4134854;28;20169;-90
2023/10/25 06:02:33;;;;;;;1.95;0.45;;;11.10;99.90;;;;;;4135002;28;20178;-92
2023/10/25 06:04:39;;;;;;;0.40;0.22;;;11.00;99.90;;;;;;4150910;28;20165;-90
2023/10/25 06:06:43;;;;;;;1.58;0.70;;;11.10;99.90;;;;;;4134659;28;20174;-92
2023/10/25 06:08:45;;;;;;;0.60;0.60;;;11.30;99.90;;;;;;4150926;28;20223;-89
2023/10/25 06:10:48;;;;;;;0.95;0.38;;;11.60;99.90;;;;;;4134535;28;20220;-91
2023/10/25 06:12:49;;;;;;;0.77;0.30;;;11.70;99.90;;;;;;4150557;28;20169;-91
2023/10/25 06:14:50;;;;;;;4.45;0.50;;;11.80;99.90;;;;;;4150699;28;20192;-90
2023/10/25 06:16:51;;;;;;;1.48;0.47;;;11.80;99.90;;;;;;4134342;28;20189;-91
2023/10/25 06:18:52;;;;;;;2.13;0.60;;;11.70;99.90;;;;;;4134447;28;20189;-92
2023/10/25 06:20:53;;;;;;;0.55;0.30;;;11.60;99.90;;;;;;4150614;28;20176;-90
2023/10/25 06:22:56;;;;;;;1.02;0.47;;;11.70;99.90;;;;;;4134455;28;20169;-90
2023/10/25 06:24:57;;;;;;;1.08;0.40;;;11.80;99.90;;;;;;4134356;28;20169;-90
2023/10/25 06:26:58;;;;;;;1.83;0.38;;;11.90;99.90;;;;;;4150295;28;20206;-90
2023/10/25 06:28:58;;;;;;;2.38;0.57;;;12.00;99.90;;;;;;4149583;28;20169;-91
2023/10/25 06:30:59;;;;;;;0.57;0.40;;;11.90;99.90;;;;;;4134285;28;20229;-90
2023/10/25 06:33:00;;;;;;;0.75;0.50;;;11.80;99.90;;;;;;4150484;28;20643;-89
2023/10/25 06:35:01;;;;;;;0.25;0.22;;;11.70;99.90;;;;;;4150624;28;20315;-89
2023/10/25 06:37:03;;;;;;;1.45;0.80;;;11.60;99.90;;;;;;4150394;28;20189;-90
2023/10/25 06:39:07;;;;;;;0.32;0.28;;;11.50;99.90;;;;;;4134042;28;20657;-91
2023/10/25 06:41:19;;;;;;;0.63;0.32;;;11.50;99.90;;;;;;4150269;28;20246;-90
2023/10/25 06:43:20;;;;;;;0.32;0.32;;;11.30;99.90;;;;;;4133860;28;20325;-93
2023/10/25 06:45:21;;;;;;;2.88;0.50;;;11.20;99.90;;;;;;4134160;28;20182;-90
2023/10/25 06:47:25;;;;;;;2.80;0.73;;;11.10;99.90;;;;;;4166526;28;20199;-90
2023/10/25 06:49:26;;;;;;;1.05;0.47;;;11.00;99.90;;;;;;4150181;28;20173;-92
2023/10/25 06:51:27;;;;;;;1.50;0.55;;;11.00;99.90;;;;;;4150329;28;20276;-92
2023/10/25 06:53:29;;;;;;;0.98;0.68;;;10.90;99.90;;;;;;4150067;28;20274;-92
2023/10/25 06:55:30;;;;;;;1.17;0.40;;;10.80;99.90;;;;;;4133881;28;20185;-91
2023/10/25 06:57:31;;;;;;;4.10;1.30;;;10.80;99.90;;;;;;4133517;28;20692;-92
2023/10/25 06:59:33;;;;;;;1.08;0.43;;;10.70;99.90;;;;;;4149891;28;20173;-90
2023/10/25 07:01:39;;;;;;;1.83;0.73;;;10.80;99.90;;;;;;4150136;28;20264;-92
2023/10/25 07:03:48;;;;;;;0.50;0.40;;;10.70;99.90;;;;;;4149699;28;20180;-92
2023/10/25 07:05:51;;;;;;;2.65;0.82;;;10.80;99.90;;;;;;4133842;28;20174;-90
2023/10/25 07:07:53;;;;;;;0.90;0.70;;;10.90;99.90;;;;;;4149744;28;20201;-92
2023/10/25 07:09:54;;;;;;;2.70;0.50;;;11.00;99.90;;;;;;4149911;28;20236;-90
2023/10/25 07:11:55;;;;;;;2.13;0.73;;;10.90;99.90;;;;;;4133555;28;20265;-92
2023/10/25 07:13:56;;;;;;;0.65;0.57;;;10.60;99.90;;;;;;4133495;28;20256;-91
2023/10/25 07:15:57;;;;;;;1.05;0.40;;;10.70;99.90;;;;;;4149921;28;20209;-93
2023/10/25 07:17:58;;;;;;;2.28;0.50;;;10.80;99.90;;;;;;4149573;28;20192;-92
2023/10/25 07:19:59;;;;;;;0.88;0.43;;;10.80;99.90;;;;;;4149819;28;20268;-90
2023/10/25 07:21:59;;;;;;;3.00;0.47;;;11.00;99.90;;;;;;4149684;28;20245;-92
2023/10/25 07:24:00;;;;;;;0.82;0.50;;;11.20;99.90;;;;;;4133284;28;20180;-91
2023/10/25 07:26:01;;;;;;;1.40;0.80;;;11.30;99.90;;;;;;4149670;28;20612;-92
2023/10/25 07:28:02;;;;;;;1.98;1.05;;;11.10;99.90;;;;;;4133475;28;20194;-91
2023/10/25 07:30:04;;;;;;;0.98;0.63;;;11.10;99.90;;;;;;4149367;28;20204;-91
2023/10/25 07:32:05;;;;;;;0.65;0.50;;;11.20;99.90;;;;;;4133026;28;20554;-91
2023/10/25 07:34:06;;;;;;;5.47;0.63;;;11.40;99.90;;;;;;4133084;28;20193;-91
2023/10/25 07:36:07;;;;;;;2.72;0.60;;;11.40;99.90;;;;;;4133355;28;20169;-91
2023/10/25 07:38:08;;;;;;;1.63;0.77;;;11.40;99.90;;;;;;4149386;28;20256;-90
2023/10/25 07:40:10;;;;;;;0.93;0.50;;;11.50;99.90;;;;;;4148558;28;20173;-92
2023/10/25 07:42:10;;;;;;;0.57;0.35;;;11.50;99.90;;;;;;4132979;28;20205;-91
2023/10/25 07:44:11;;;;;;;0.55;0.50;;;11.50;99.90;;;;;;4149075;28;20653;-91
2023/10/25 07:46:12;;;;;;;2.17;0.63;;;11.40;99.90;;;;;;4149062;28;20538;-91
2023/10/25 07:48:13;;;;;;;1.02;0.40;;;11.50;99.90;;;;;;4149117;28;20201;-91
2023/10/25 07:50:18;;;;;;;4.75;0.85;;;11.50;99.90;;;;;;4149004;28;20208;-92
2023/10/25 07:52:18;;;;;;;2.13;0.68;;;11.40;99.90;;;;;;4149136;28;20208;-91
2023/10/25 07:54:19;;;;;;;1.75;0.57;;;11.40;99.90;;;;;;4149164;28;20173;-90
2023/10/25 07:56:20;;;;;;;7.78;1.42;;;11.30;99.90;;;;;;4149361;28;20173;-91
2023/10/25 07:58:22;;;;;;;6.10;1.15;;;11.30;99.90;;;;;;4148866;28;20204;-91
2023/10/25 08:00:23;;;;;;;1.35;0.73;;;11.30;99.90;;;;;;4132728;28;20342;-92
2023/10/25 08:02:24;;;;;;;2.92;0.63;;;11.30;99.90;;;;;;4149224;28;20216;-92
2023/10/25 08:04:25;;;;;;;2.50;0.50;;;11.20;99.90;;;;;;4148896;28;20252;-93
2023/10/25 08:06:26;;;;;;;0.85;0.50;;;11.10;99.90;;;;;;4132674;28;20178;-93
2023/10/25 08:08:27;;;;;;;0.70;0.32;;;11.20;99.90;;;;;;4149080;28;20172;-92
2023/10/25 08:10:28;;;;;;;0.52;0.30;;;11.30;99.90;;;;;;4132540;28;20760;-92
2023/10/25 08:12:29;;;;;;;1.88;0.60;;;11.40;99.90;;;;;;4132478;28;20205;-91
2023/10/25 08:14:30;;;;;;;2.20;0.70;;;11.30;99.90;;;;;;4148733;28;20192;-91
2023/10/25 08:16:32;;;;;;;0.50;0.40;;;11.30;99.90;;;;;;4132627;28;20182;-92
2023/10/25 08:18:33;;;;;;;6.35;1.05;;;11.30;99.90;;;;;;4148755;28;20239;-92
2023/10/25 08:20:36;;;;;;;0.35;0.35;;;11.30;99.90;;;;;;4148806;28;20176;-91
2023/10/25 08:22:37;;;;;;;0.68;0.45;;;11.20;99.90;;;;;;4132735;28;20186;-92
2023/10/25 08:24:38;;;;;;;1.00;0.40;;;11.20;99.90;;;;;;4148612;28;20573;-90
2023/10/25 08:26:39;;;;;;;0.95;0.50;;;11.20;99.90;;;;;;4132382;28;20180;-91
2023/10/25 08:28:40;;;;;;;0.57;0.40;;;11.20;99.90;;;;;;4132618;28;20708;-91
2023/10/25 08:30:41;;;;;;;0.80;0.40;;;11.20;99.90;;;;;;4148652;28;20236;-93
2023/10/25 08:32:42;;;;;;;0.40;0.40;;;11.20;99.90;;;;;;4148534;28;20208;-91
2023/10/25 08:34:45;;;;;;;1.30;0.50;;;11.20;99.90;;;;;;4148494;28;20629;-92
2023/10/25 08:36:46;;;;;;;4.70;0.50;;;11.30;99.90;;;;;;4132237;28;20264;-93
2023/10/25 08:38:46;;;;;;;0.93;0.52;;;11.50;99.90;;;;;;4148733;28;20169;-93
2023/10/25 08:40:48;;;;;;;0.88;0.60;;;11.50;99.90;;;;;;4148529;28;20179;-92
2023/10/25 08:42:50;;;;;;;0.80;0.50;;;11.50;99.90;;;;;;4148464;28;20514;-92
2023/10/25 08:44:51;;;;;;;0.93;0.60;;;11.60;99.90;;;;;;4148212;28;20169;-92
2023/10/25 08:46:53;;;;;;;1.95;0.82;;;11.60;99.90;;;;;;4132110;28;20204;-92
2023/10/25 08:48:55;;;;;;;0.30;0.30;;;11.60;99.90;;;;;;4132187;28;20201;-93
2023/10/25 08:50:58;;;;;;;1.15;0.70;;;11.50;99.90;;;;;;4148117;28;20235;-93
2023/10/25 08:52:59;;;;;;;2.00;0.80;;;11.40;99.90;;;;;;4148387;28;20267;-92
2023/10/25 08:55:01;;;;;;;1.02;0.55;;;11.40;99.90;;;;;;4148479;28;20227;-92
2023/10/25 08:57:04;;;;;;;2.42;0.63;;;11.30;99.90;;;;;;4132223;28;20243;-92
2023/10/25 08:59:05;;;;;;;7.38;1.38;;;11.20;99.90;;;;;;4132419;28;20229;-93
2023/10/25 09:01:06;;;;;;;1.30;0.65;;;11.20;99.90;;;;;;4148421;28;20173;-92
2023/10/25 09:03:06;;;;;;;0.68;0.40;;;11.40;99.90;;;;;;4148579;28;21009;-93
2023/10/25 09:05:07;;;;;;;1.08;0.52;;;11.50;99.90;;;;;;4132121;28;20181;-93
2023/10/25 09:07:30;;;;;;;1.08;0.45;;;11.50;99.90;;;;;;4148353;28;20251;-93
2023/10/25 09:09:39;;;;;;;1.70;0.98;;;11.40;99.90;;;;;;4148584;28;20732;-92
2023/10/25 09:11:44;;;;;;;1.10;0.80;;;11.30;99.90;;;;;;4148384;28;20267;-93
2023/10/25 09:13:56;;;;;;;0.40;0.40;;;11.20;99.90;;;;;;4148636;28;20187;-92
2023/10/25 09:16:08;;;;;;;5.35;0.43;;;11.20;99.90;;;;;;4148214;28;20267;-92
2023/10/25 09:18:10;;;;;;;1.10;0.60;;;11.30;99.90;;;;;;4148194;28;20200;-93
2023/10/25 09:20:11;;;;;;;2.65;0.65;;;11.20;99.90;;;;;;4148753;28;20244;-93
2023/10/25 09:22:30;;;;;;;0.47;0.47;;;11.30;99.90;;;;;;4137069;28;20189;-92
2023/10/25 09:24:47;;;;;;;0.80;0.80;;;11.40;99.90;;;;;;4150652;28;20177;-92
2023/10/25 09:26:48;;;;;;;1.55;0.50;;;11.50;99.90;;;;;;4148667;28;20636;-94
2023/10/25 09:28:53;;;;;;;1.05;0.45;;;11.60;99.90;;;;;;4132414;28;20335;-93
2023/10/25 09:31:00;;;;;;;2.47;0.60;;;11.60;99.90;;;;;;4132510;28;20280;-94
2023/10/25 09:33:04;;;;;;;1.70;0.63;;;11.60;99.90;;;;;;4132271;28;20622;-94
2023/10/25 09:35:06;;;;;;;0.75;0.50;;;11.60;99.90;;;;;;4148379;28;20610;-92
2023/10/25 09:37:07;;;;;;;1.20;0.90;;;11.70;99.90;;;;;;4148302;28;20189;-93
2023/10/25 09:39:08;;;;;;;1.83;0.77;;;11.60;99.90;;;;;;4132168;28;20273;-93
2023/10/25 09:41:14;;;;;;;1.65;0.98;;;11.60;99.90;;;;;;4131910;28;20193;-94
2023/10/25 09:43:18;;;;;;;1.13;0.50;;;11.70;99.90;;;;;;4131805;28;20237;-91
2023/10/25 09:45:25;;;;;;;2.10;0.85;;;11.80;99.90;;;;;;4148381;28;20200;-91
2023/10/25 09:47:31;;;;;;;1.88;1.00;;;11.70;99.90;;;;;;4148132;28;20189;-91
2023/10/25 09:49:35;;;;;;;1.92;1.08;;;11.80;99.90;;;;;;4148193;28;20177;-91
2023/10/25 09:51:39;;;;;;;1.85;0.98;;;11.90;99.90;;;;;;4148032;28;20719;-93
2023/10/25 09:54:00;;;;;;;1.52;0.73;;;12.00;99.90;;;;;;4148553;28;20173;-94
2023/10/25 09:56:04;;;;;;;3.65;0.93;;;12.00;99.90;;;;;;4148379;28;20185;-92
2023/10/25 09:58:10;;;;;;;0.88;0.70;;;11.90;99.90;;;;;;4148219;28;20189;-92
2023/10/25 10:00:12;;;;;;;1.38;0.85;;;11.80;99.90;;;;;;4131795;28;20272;-93
2023/10/25 10:02:51;;;;;;;1.20;0.82;;;11.80;99.90;;;;;;4148119;28;20184;-92
2023/10/25 10:05:11;;;;;;;2.15;1.05;;;11.90;99.90;;;;;;4151197;28;20180;-92
2023/10/25 10:07:44;;;;;;;0.77;0.68;;;11.90;99.90;;;;;;4151484;28;20192;-91
2023/10/25 10:10:01;;;;;;;1.52;0.70;;;11.90;99.90;;;;;;4148748;28;20176;-92
2023/10/25 10:12:06;;;;;;;1.58;0.90;;;12.10;99.90;;;;;;4134544;28;20186;-92
2023/10/25 10:14:30;;;;;;;1.30;0.70;;;12.10;99.90;;;;;;4134721;28;20193;-92
2023/10/25 10:16:32;;;;;;;2.53;1.00;;;12.20;99.90;;;;;;4134923;28;20674;-94
2023/10/25 10:18:37;;;;;;;1.85;0.95;;;12.20;99.90;;;;;;4134931;28;20181;-92
2023/10/25 10:20:38;;;;;;;1.67;0.75;;;12.20;99.90;;;;;;4134772;28;20282;-92
2023/10/25 10:23:03;;;;;;;2.05;1.00;;;12.30;99.90;;;;;;4134509;28;20185;-91
2023/10/25 10:25:05;;;;;;;3.30;0.85;;;12.30;99.90;;;;;;4150807;28;20208;-91
2023/10/25 10:27:06;;;;;;;2.00;1.15;;;12.40;99.90;;;;;;4134585;28;20197;-94
2023/10/25 10:29:33;;;;;;;1.77;1.13;;;12.40;99.90;;;;;;4134869;28;20161;-92
2023/10/25 10:31:58;;;;;;;3.42;1.10;;;12.40;99.90;;;;;;4134491;28;20201;-94
2023/10/25 10:33:59;;;;;;;1.33;0.70;;;12.40;99.90;;;;;;4134512;28;20585;-92
2023/10/25 10:36:01;;;;;;;3.30;1.33;;;12.40;99.90;;;;;;4150787;28;20268;-93
2023/10/25 10:38:03;;;;;;;1.38;0.85;;;12.40;99.90;;;;;;4134463;28;20236;-94
2023/10/25 10:40:04;;;;;;;2.80;1.08;;;12.70;99.90;;;;;;4134583;28;20185;-94
2023/10/25 10:42:05;;;;;;;0.98;0.80;;;12.60;99.90;;;;;;4151028;28;20212;-93